Home > Products > Valid Products > MTR

000
SAUS44 KMAF 250011 COR
MTRGDP
METAR KGDP 242351Z AUTO 26018KT 10SM CLR 06/M19 A3007 RMK AO2 PK WND
26032/2311 SLP178 T00611194 10117 20061 53015





000
SAUS44 KMAF 250010 COR
MTRGDP
METAR KGDP 242351Z AUTO 26018KT 10SM CLR 06/M19 A3007 RMK AO2 PK WND
26032/2311 SLP178 T00611194 10117 20061 53015





000
SAUS44 KMAF 250009
MTRGDP
METAR KGDP 242351Z AUTO 26018KT 10SM CLR 06/M19 A3007 RMK AO2 PK WND
26032/2311 SLP178 T00611194 10117 20061 53015





000
SAUS44 KMAF 242354
MTR6R6
METAR K6R6 242353Z AUTO 03005KT 14/M09 A3005 RMK AO1 SLP163
T01391089 10183 20139 53009





000
SAUS44 KMAF 242309
MTRGDP
METAR KGDP 242251Z AUTO 26027G35KT 10SM CLR 09/M20 A3005 RMK AO2 PK
WND 27039/2235 SLP160 T00891200





000
SAUS44 KMAF 242254
MTR6R6
METAR K6R6 242253Z AUTO 33008KT 17/M13 A3003 RMK AO1 SLP152
T01721128





000
SAUS44 KMAF 242209
MTRGDP
METAR KGDP 242151Z AUTO 25032G41KT 10SM CLR 10/M21 A3002 RMK AO2 PK
WND 26043/2134 SLP148 T01001211





000
SAUS44 KMAF 242155
MTR6R6
METAR K6R6 242153Z AUTO 02008KT 18/M12 A3002 RMK AO1 SLP150
T01781122





000
SAUS44 KMAF 242155
MTR6R6
METAR K6R6 242153Z AUTO 02008KT 18/M12 A3002 RMK AO1 SLP150
T01781122





000
SAUS44 KMAF 242109
MTRGDP
METAR KGDP 242051Z AUTO 26033G40KT 10SM CLR 11/M22 A3002 RMK AO2 PK
WND 27040/2042 SLP144 T01111217 56029





000
SAUS44 KMAF 242054
MTR6R6
METAR K6R6 242053Z AUTO 34005KT 18/M12 A3002 RMK AO1 SLP144
T01781117





000
SAUS44 KMAF 242009
MTRGDP
METAR KGDP 241951Z AUTO 26031G37KT 10SM CLR 11/M18 A3004 RMK AO2 PK
WND 25037/1949 SLP152 T01061183





000
SAUS44 KMAF 241954
MTR6R6
METAR K6R6 241953Z AUTO 00000KT 17/M11 A3003 RMK AO1 SLP151
T01721106 $





000
SAUS44 KMAF 241909
MTRGDP
METAR KGDP 241851Z AUTO 25020G30KT 10SM CLR 10/M17 A3008 RMK AO2 PK
WND 26030/1845 SLP169 T01001167





000
SAUS44 KMAF 241854
MTR6R6
METAR K6R6 241853Z AUTO VRB06KT 17/M11 A3007 RMK AO1 SLP163
T01671111





000
SAUS44 KMAF 241811 COR
MTRGDP
METAR KGDP 241751Z AUTO 25022G28KT 10SM CLR 09/M17 A3012 RMK AO2 PK
WND 26028/1747 SLP180 T00941172 10100 21006 58001





000
SAUS44 KMAF 241810 COR
MTRGDP
METAR KGDP 241751Z AUTO 25022G28KT 10SM CLR 09/M17 A3012 RMK AO2 PK
WND 26028/1747 SLP180 T00941172 10100 21006 58001





000
SAUS44 KMAF 241809
MTRGDP
METAR KGDP 241751Z AUTO 25022G28KT 10SM CLR 09/M17 A3012 RMK AO2 PK
WND 26028/1747 SLP180 T00941172 10100 21006 58001





000
SAUS44 KMAF 241754
MTR6R6
METAR K6R6 241753Z AUTO VRB04KT 16/M08 A3011 RMK AO1 SLP178
T01611083 10161 20033 58003





000
SAUS44 KMAF 241709
MTRGDP
METAR KGDP 241651Z AUTO 25018G25KT 10SM CLR 07/M14 A3013 RMK AO2
SLP197 T00721144





000
SAUS44 KMAF 241654
MTR6R6
METAR K6R6 241653Z AUTO 23003KT 15/M08 A3013 RMK AO1 SLP185
T01501078





000
SAUS44 KMAF 241609
MTRGDP
METAR KGDP 241551Z AUTO 25011KT 10SM CLR 05/M13 A3014 RMK AO2 SLP198
T00501128





000
SAUS44 KMAF 241554
MTR6R6
METAR K6R6 241553Z AUTO 28005KT 14/M07 A3013 RMK AO1 SLP182
T01391067





000
SAUS44 KMAF 241509
MTRGDP
METAR KGDP 241451Z AUTO 26011KT 10SM CLR 03/M13 A3012 RMK AO2 SLP191
T00281128 53010





000
SAUS44 KMAF 241454
MTR6R6
METAR K6R6 241453Z AUTO 27005KT 11/M03 A3012 RMK AO1 SLP180
T01061028 53022





000
SAUS44 KMAF 241409
MTRGDP
METAR KGDP 241351Z AUTO VRB03KT 10SM CLR 01/M14 A3010 RMK AO2 SLP179
T00111144





000
SAUS44 KMAF 241354
MTR6R6
METAR K6R6 241353Z AUTO 23005KT 04/M02 A3009 RMK AO1 SLP175
T00441022





000
SAUS44 KMAF 241309
MTRGDP
METAR KGDP 241251Z AUTO 25015KT 10SM CLR 00/M14 A3008 RMK AO2 SLP174
T00001139





000
SAUS44 KMAF 241254
MTR6R6
METAR K6R6 241253Z AUTO 00000KT 05/M02 A3006 RMK AO1 SLP166
T00501017





000
SAUS44 KMAF 241209
MTRGDP
METAR KGDP 241151Z AUTO VRB06KT 10SM CLR 01/M13 A3009 RMK AO2 SLP171
T00061128 10039 20000 53004





000
SAUS44 KMAF 241154
MTR6R6
METAR K6R6 241153Z AUTO 36004KT 04/M02 A3005 RMK AO1 SLP157
T00441022 10122 20039 52010





000
SAUS44 KMAF 241109
MTRGDP
METAR KGDP 241051Z AUTO 22012G16KT 10SM CLR 02/M11 A3007 RMK AO2
SLP160 T00171106





000
SAUS44 KMAF 241054
MTR6R6
METAR K6R6 241053Z AUTO 30009KT 08/M02 A3003 RMK AO1 SLP148
T00781022





000
SAUS44 KMAF 241009
MTRGDP
METAR KGDP 240951Z AUTO VRB05KT 10SM CLR 01/M06 A3008 RMK AO2 SLP159
T00111061





000
SAUS44 KMAF 241009
MTRGDP
METAR KGDP 240951Z AUTO VRB05KT 10SM CLR 01/M06 A3008 RMK AO2 SLP159
T00111061





000
SAUS44 KMAF 240954
MTR6R6
METAR K6R6 240953Z AUTO 27008KT 07/M02 A3003 RMK AO1 SLP146
T00721017





000
SAUS44 KMAF 240954
MTR6R6
METAR K6R6 240953Z AUTO 27008KT 07/M02 A3003 RMK AO1 SLP146
T00721017





000
SAUS44 KMAF 240909
MTRGDP
METAR KGDP 240851Z AUTO 21007KT 10SM CLR 02/M07 A3008 RMK AO2 SLP157
T00171072 51008





000
SAUS44 KMAF 240854
MTR6R6
METAR K6R6 240853Z AUTO 21006KT 12/M03 A3002 RMK AO1 SLP139
T01171033 53019





000
SAUS44 KMAF 240809
MTRGDP
METAR KGDP 240751Z AUTO 22008KT 10SM CLR 02/M07 A3007 RMK AO2 SLP154
T00221072





000
SAUS44 KMAF 240754
MTR6R6
METAR K6R6 240753Z AUTO 25007KT 10/M01 A2999 RMK AO1 SLP131
T01001011





000
SAUS44 KMAF 240709
MTRGDP
METAR KGDP 240651Z AUTO 22009KT 10SM CLR 02/M07 A3006 RMK AO2 SLP148
T00221067 401560006





000
SAUS44 KMAF 240654
MTR6R6
METAR K6R6 240653Z AUTO 34013G25KT 11/M01 A2997 RMK AO1 PK WND
34027/0617 SLP125 T01061006





000
SAUS44 KMAF 240609
MTRGDP
METAR KGDP 240551Z AUTO 00000KT 10SM CLR 03/M07 A3005 RMK AO2 SLP144
T00331067 10111 20006 51016





000
SAUS44 KMAF 240558 COR
MTR6R6
METAR K6R6 240553Z AUTO 34017G24KT 12/00 A2996 RMK AO1 PK WND
35031/0510 SLP119 T01170000 10233 20117 402720100





000
SAUS44 KMAF 240556 COR
MTR6R6
METAR K6R6 240553Z AUTO 34017G24KT 12/00 A2996 RMK AO1 PK WND
35031/0510 SLP119 T01170000 10233 20117 402720100





000
SAUS44 KMAF 240555 COR
MTR6R6
METAR K6R6 240553Z AUTO 34017G24KT 12/00 A2996 RMK AO1 PK WND
35031/0510 SLP119 T01170000 10233 20117 402720100





000
SAUS44 KMAF 240554
MTR6R6
METAR K6R6 240553Z AUTO 34017G24KT 12/00 A2996 RMK AO1 PK WND
35031/0510 SLP119 T01170000 10233 20117 402720100





000
SAUS44 KMAF 240509
MTRGDP
METAR KGDP 240451Z AUTO 08015KT 10SM CLR 01/M03 A3003 RMK AO2 PK WND
09026/0358 SLP145 T00061033





000
SAUS44 KMAF 240454
MTR6R6
METAR K6R6 240453Z AUTO 36018G29KT 13/00 A2991 RMK AO1 PK WND
35029/0431 SLP103 T01330000





000
SAUS44 KMAF 240409
MTRGDP
METAR KGDP 240351Z AUTO 08018KT 10SM CLR 02/M03 A3001 RMK AO2 PK WND
10027/0330 SLP141 T00221028





000
SAUS44 KMAF 240409
MTRGDP
METAR KGDP 240351Z AUTO 08018KT 10SM CLR 02/M03 A3001 RMK AO2 PK WND
10027/0330 SLP141 T00221028





000
SAUS44 KMAF 240354
MTR6R6
METAR K6R6 240353Z AUTO 35017G29KT 17/M03 A2987 RMK AO1 PK WND
35033/0343 SLP088 T01721033





000
SAUS44 KMAF 240354
MTR6R6
METAR K6R6 240353Z AUTO 35017G29KT 17/M03 A2987 RMK AO1 PK WND
35033/0343 SLP088 T01721033





000
SAUS44 KMAF 240309
MTRGDP
METAR KGDP 240251Z AUTO 10011KT 10SM CLR 06/M07 A2999 RMK AO2 SLP129
T00611067 51044





000
SAUS44 KMAF 240254
MTR6R6
METAR K6R6 240253Z AUTO 30008KT 18/M04 A2983 RMK AO1 SLP074
T01831039 51039





000
SAUS44 KMAF 240209
MTRGDP
METAR KGDP 240151Z AUTO 28015G20KT 10SM CLR 09/M14 A2995 RMK AO2 PK
WND 27028/0127 SLP114 T00891139





000
SAUS44 KMAF 240154
MTR6R6
METAR K6R6 240153Z AUTO 31008KT 17/M04 A2980 RMK AO1 SLP068
T01721039





000
SAUS44 KMAF 240109
MTRGDP
METAR KGDP 240051Z AUTO 26021G28KT 10SM CLR 09/M10 A2991 RMK AO2 PK
WND 25045/2352 SLP099 T00941100





000
SAUS44 KMAF 240054
MTR6R6
METAR K6R6 240053Z AUTO 31009KT 19/M03 A2975 RMK AO1 SLP050
T01941033





000
SAUS44 KMAF 240011 COR
MTRGDP
METAR KGDP 232351Z AUTO 25035G44KT 8SM CLR 11/M07 A2984 RMK AO2 PK
WND 25049/2323 SLP071 T01111072 10156 20111 51022





000
SAUS44 KMAF 240010 COR
MTRGDP
METAR KGDP 232351Z AUTO 25035G44KT 8SM CLR 11/M07 A2984 RMK AO2 PK
WND 25049/2323 SLP071 T01111072 10156 20111 51022





000
SAUS44 KMAF 240009
MTRGDP
METAR KGDP 232351Z AUTO 25035G44KT 8SM CLR 11/M07 A2984 RMK AO2 PK
WND 25049/2323 SLP071 T01111072 10156 20111 51022





000
SAUS44 KMAF 232354
MTR6R6
METAR K6R6 232353Z AUTO 29010KT 23/M06 A2970 RMK AO1 PK WND
27027/2317 SLP031 T02331056 10272 20233 53022





000
SAUS44 KMAF 232310 COR
MTRGDP
METAR KGDP 232251Z AUTO 25030G37KT 8SM CLR 13/M07 A2983 RMK AO2 PK
WND 25049/2232 PRESRR SLP062 T01281067





000
SAUS44 KMAF 232309
MTRGDP
METAR KGDP 232251Z AUTO 25030G37KT 8SM CLR 13/M07 A2983 RMK AO2 PK
WND 25049/2232 PRESRR SLP062 T01281067





000
SAUS44 KMAF 232254
MTR6R6
METAR K6R6 232253Z AUTO 26018G28KT 26/M04 A2966 RMK AO1 PK WND
27029/2237 SLP017 T02561044





000
SAUS44 KMAF 232210 COR
MTRGDP
METAR KGDP 232151Z AUTO 24035G49KT 7SM BKN035 BKN075 14/M06 A2978
RMK AO2 PK WND 25055/2054 SLP045 T01391061





000
SAUS44 KMAF 232209
MTRGDP
METAR KGDP 232151Z AUTO 24035G49KT 7SM BKN035 BKN075 14/M06 A2978
RMK AO2 PK WND 25055/2054 SLP045 T01391061





000
SAUS44 KMAF 232154
MTR6R6
METAR K6R6 232153Z AUTO 27018G30KT 27/M04 A2964 RMK AO1 PK WND
25031/2104 SLP009 T02671039





000
SAUS44 KMAF 232154
MTR6R6
METAR K6R6 232153Z AUTO 27018G30KT 27/M04 A2964 RMK AO1 PK WND
25031/2104 SLP009 T02671039





000
SAUS44 KMAF 232109
MTRGDP
METAR KGDP 232051Z AUTO 25039G53KT 8SM CLR 14/M05 A2976 RMK AO2 PK
WND 25053/2048 SLP035 T01441050 56015





000
SAUS44 KMAF 232054
MTR6R6
METAR K6R6 232053Z AUTO 25024G33KT 27/M03 A2964 RMK AO1 PK WND
24033/2047 SLP008 T02671033 56030





000
SAUS44 KMAF 232009
MTRGDP
METAR KGDP 231951Z AUTO 24041G53KT 9SM CLR 14/M04 A2976 RMK AO2 PK
WND 24053/1948 SLP034 T01441044





000
SAUS44 KMAF 231954
MTR6R6
METAR K6R6 231953Z AUTO 24021G30KT 26/M01 A2964 RMK AO1 PK WND
25036/1905 SLP011 T02611011





000
SAUS44 KMAF 231954
MTR6R6
METAR K6R6 231953Z AUTO 24021G30KT 26/M01 A2964 RMK AO1 PK WND
25036/1905 SLP011 T02611011





000
SAUS44 KMAF 231916 COR
MTRGDP
METAR KGDP 231851Z AUTO 25039G46KT 10SM CLR 15/M04 A2979 RMK AO2 PK
WND 25051/1754 SLP042 T01501044





000
SAUS44 KMAF 231911 COR
MTRGDP
METAR KGDP 231851Z AUTO 25039G46KT 10SM CLR 15/M04 A2979 RMK AO2 PK
WND 25051/1754 SLP042 T01501044





000
SAUS44 KMAF 231910 COR
MTRGDP
METAR KGDP 231851Z AUTO 25039G46KT 10SM CLR 15/M04 A2979 RMK AO2 PK
WND 25051/1754 SLP042 T01501044





000
SAUS44 KMAF 231909
MTRGDP
METAR KGDP 231851Z AUTO 25039G46KT 10SM CLR 15/M04 A2979 RMK AO2 PK
WND 25051/1754 SLP042 T01501044





000
SAUS44 KMAF 231854
MTR6R6
METAR K6R6 231853Z AUTO 26017G32KT 25/M01 A2968 RMK AO1 PK WND
24036/1834 SLP024 T02501006





000
SAUS44 KMAF 231811 COR
MTRGDP
METAR KGDP 231751Z AUTO 24035G47KT 10SM CLR 14/M04 A2981 RMK AO2 PK
WND 25052/1716 SLP050 T01441044 10144 20072 58008





000
SAUS44 KMAF 231810 COR
MTRGDP
METAR KGDP 231751Z AUTO 24035G47KT 10SM CLR 14/M04 A2981 RMK AO2 PK
WND 25052/1716 SLP050 T01441044 10144 20072 58008





000
SAUS44 KMAF 231809
MTRGDP
METAR KGDP 231751Z AUTO 24035G47KT 10SM CLR 14/M04 A2981 RMK AO2 PK
WND 25052/1716 SLP050 T01441044 10144 20072 58008





000
SAUS44 KMAF 231754
MTR6R6
METAR K6R6 231753Z AUTO 26020G28KT 24/M01 A2973 RMK AO1 PK WND
25034/1718 SLP041 T02441006 10244 20133 58001





000
SAUS44 KMAF 231709
MTRGDP
METAR KGDP 231651Z AUTO 25038G50KT 9SM CLR 14/M05 A2983 RMK AO2 PK
WND 25050/1649 SLP058 T01391050





000
SAUS44 KMAF 231654
MTR6R6
METAR K6R6 231653Z AUTO 25022G30KT 23/00 A2974 RMK AO1 PK WND
24035/1607 SLP046 T02280000





000
SAUS44 KMAF 231609
MTRGDP
METAR KGDP 231551Z AUTO 25031G42KT 10SM CLR 11/M06 A2985 RMK AO2 PK
WND 25042/1548 SLP071 T01111056





000
SAUS44 KMAF 231609
MTRGDP
METAR KGDP 231551Z AUTO 25031G42KT 10SM CLR 11/M06 A2985 RMK AO2 PK
WND 25042/1548 SLP071 T01111056





000
SAUS44 KMAF 231554
MTR6R6
METAR K6R6 231553Z AUTO 25022G32KT 22/01 A2975 RMK AO1 PK WND
25032/1545 SLP049 T02170011 $





000
SAUS44 KMAF 231554
MTR6R6
METAR K6R6 231553Z AUTO 25022G32KT 22/01 A2975 RMK AO1 PK WND
25032/1545 SLP049 T02170011 $





000
SAUS44 KMAF 231509
MTRGDP
METAR KGDP 231451Z AUTO 24031G39KT 10SM CLR 09/M06 A2984 RMK AO2 PK
WND 24039/1422 SLP073 T00891061 51012





000
SAUS44 KMAF 231454
MTR6R6
METAR K6R6 231453Z AUTO 25017G23KT 18/02 A2973 RMK AO1 PK WND
25033/1410 SLP044 T01830017 53008 $





000
SAUS44 KMAF 231409
MTRGDP
METAR KGDP 231351Z AUTO 25030KT 10SM CLR 08/M06 A2984 RMK AO2 PK WND
24043/1309 SLP071 T00781061





000
SAUS44 KMAF 231354
MTR6R6
METAR K6R6 231353Z AUTO 25018G26KT 16/02 A2972 RMK AO1 PK WND
24026/1348 SLP040 T01610022 $





000
SAUS44 KMAF 231316 COR
MTRGDP
METAR KGDP 231251Z AUTO 24032G40KT 10SM CLR 07/M07 A2982 RMK AO2 PK
WND 24042/1234 SLP062 T00721067





000
SAUS44 KMAF 231311 COR
MTRGDP
METAR KGDP 231251Z AUTO 24032G40KT 10SM CLR 07/M07 A2982 RMK AO2 PK
WND 24042/1234 SLP062 T00721067





000
SAUS44 KMAF 231310 COR
MTRGDP
METAR KGDP 231251Z AUTO 24032G40KT 10SM CLR 07/M07 A2982 RMK AO2 PK
WND 24042/1234 SLP062 T00721067





000
SAUS44 KMAF 231309
MTRGDP
METAR KGDP 231251Z AUTO 24032G40KT 10SM CLR 07/M07 A2982 RMK AO2 PK
WND 24042/1234 SLP062 T00721067





000
SAUS44 KMAF 231254
MTR6R6
METAR K6R6 231253Z AUTO 26010KT 15/03 A2972 RMK AO1 SLP040 T01500028
$





000
SAUS44 KMAF 231211 COR
MTRGDP
METAR KGDP 231151Z AUTO 25030G35KT 10SM CLR 07/M07 A2980 RMK AO2 PK
WND 24041/1130 SLP056 T00671067 10100 20067 50008





000
SAUS44 KMAF 231210 COR
MTRGDP
METAR KGDP 231151Z AUTO 25030G35KT 10SM CLR 07/M07 A2980 RMK AO2 PK
WND 24041/1130 SLP056 T00671067 10100 20067 50008





000
SAUS44 KMAF 231209
MTRGDP
METAR KGDP 231151Z AUTO 25030G35KT 10SM CLR 07/M07 A2980 RMK AO2 PK
WND 24041/1130 SLP056 T00671067 10100 20067 50008





000
SAUS44 KMAF 231154
MTR6R6
METAR K6R6 231153Z AUTO 25009KT 14/03 A2970 RMK AO1 SLP034 T01390033
10144 20100 55012 $





000
SAUS44 KMAF 231109
MTRGDP
METAR KGDP 231051Z AUTO 24030G38KT 10SM CLR 07/M07 A2981 RMK AO2 PK
WND 25043/0957 SLP051 T00721067





000
SAUS44 KMAF 231054
MTR6R6
METAR K6R6 231053Z AUTO 24013KT 13/04 A2970 RMK AO1 SLP030 T01330039
$





000
SAUS44 KMAF 231009
MTRGDP
METAR KGDP 230951Z AUTO 25034G45KT 10SM CLR 07/M06 A2979 RMK AO2 PK
WND 25045/0911 SLP042 T00671061





000
SAUS44 KMAF 230954
MTR6R6
METAR K6R6 230953Z AUTO 27006KT 12/04 A2974 RMK AO1 SLP044 T01220039
$





000
SAUS44 KMAF 230954
MTR6R6
METAR K6R6 230953Z AUTO 27006KT 12/04 A2974 RMK AO1 SLP044 T01220039
$





000
SAUS44 KMAF 230909
MTRGDP
METAR KGDP 230851Z AUTO 25040G48KT 10SM CLR 08/M07 A2978 RMK AO2 PK
WND 26052/0752 SLP034 T00781067 55024





000
SAUS44 KMAF 230854
MTR6R6
METAR K6R6 230853Z AUTO 28008KT 12/04 A2974 RMK AO1 SLP045 T01170039
58020 $





000
SAUS44 KMAF 230809
MTRGDP
METAR KGDP 230751Z AUTO 25046G54KT 10SM CLR 08/M07 A2977 RMK AO2 PK
WND 26054/0750 SLP032 T00831072





000
SAUS44 KMAF 230754
MTR6R6
METAR K6R6 230753Z AUTO 26009KT 12/04 A2976 RMK AO1 SLP053 T01220039
$





000
SAUS44 KMAF 230711 COR
MTRGDP
METAR KGDP 230651Z AUTO 24028G41KT 10SM CLR 09/M08 A2983 RMK AO2 PK
WND 26045/0615 SLP049 T00941078 401780067





000
SAUS44 KMAF 230710 COR
MTRGDP
METAR KGDP 230651Z AUTO 24028G41KT 10SM CLR 09/M08 A2983 RMK AO2 PK
WND 26045/0615 SLP049 T00941078 401780067





000
SAUS44 KMAF 230709
MTRGDP
METAR KGDP 230651Z AUTO 24028G41KT 10SM CLR 09/M08 A2983 RMK AO2 PK
WND 26045/0615 SLP049 T00941078 401780067





000
SAUS44 KMAF 230654
MTR6R6
METAR K6R6 230653Z AUTO 27008KT 12/04 A2979 RMK AO1 SLP064 T01220044
$





000
SAUS44 KMAF 230611 COR
MTRGDP
METAR KGDP 230551Z AUTO 24025G39KT 10SM CLR 09/M07 A2986 RMK AO2 PK
WND 24041/0519 SLP060 T00941072 10122 20072 58025





000
SAUS44 KMAF 230610 COR
MTRGDP
METAR KGDP 230551Z AUTO 24025G39KT 10SM CLR 09/M07 A2986 RMK AO2 PK
WND 24041/0519 SLP060 T00941072 10122 20072 58025





000
SAUS44 KMAF 230609
MTRGDP
METAR KGDP 230551Z AUTO 24025G39KT 10SM CLR 09/M07 A2986 RMK AO2 PK
WND 24041/0519 SLP060 T00941072 10122 20072 58025





000
SAUS44 KMAF 230557 COR
MTR6R6
METAR K6R6 230553Z AUTO 27008KT 12/04 A2980 RMK AO1 SLP071 T01170039
10200 20111 402500111 58002 $





000
SAUS44 KMAF 230556 COR
MTR6R6
METAR K6R6 230553Z AUTO 27008KT 12/04 A2980 RMK AO1 SLP071 T01170039
10200 20111 402500111 58002 $





000
SAUS44 KMAF 230555 COR
MTR6R6
METAR K6R6 230553Z AUTO 27008KT 12/04 A2980 RMK AO1 SLP071 T01170039
10200 20111 402500111 58002 $





000
SAUS44 KMAF 230554
MTR6R6
METAR K6R6 230553Z AUTO 27008KT 12/04 A2980 RMK AO1 SLP071 T01170039
10200 20111 402500111 58002 $





000
SAUS44 KMAF 230509
MTRGDP
METAR KGDP 230451Z AUTO 23029KT 10SM CLR 08/M04 A2988 RMK AO2 PK WND
22033/0448 SLP073 T00781039





000
SAUS44 KMAF 230454
MTR6R6
METAR K6R6 230453Z AUTO 25009KT 13/04 A2982 RMK AO1 SLP077 T01280039
$





000
SAUS44 KMAF 230409
MTRGDP
METAR KGDP 230351Z AUTO 23017KT 10SM CLR 08/M02 A2995 RMK AO2 SLP107
T00831022





000
SAUS44 KMAF 230409
MTRGDP
METAR KGDP 230351Z AUTO 23017KT 10SM CLR 08/M02 A2995 RMK AO2 SLP107
T00831022





000
SAUS44 KMAF 230354
MTR6R6
METAR K6R6 230353Z AUTO 26008KT 14/03 A2981 RMK AO1 SLP075 T01390033
$





000
SAUS44 KMAF 230309
MTRGDP
METAR KGDP 230251Z AUTO 24016KT 10SM CLR 09/M01 A2994 RMK AO2 SLP106
T00891011 53008





000
SAUS44 KMAF 230254
MTR6R6
METAR K6R6 230253Z AUTO 26008KT 15/04 A2981 RMK AO1 SLP073 T01500039
50005 $





000
SAUS44 KMAF 230209
MTRGDP
METAR KGDP 230151Z AUTO 23015G21KT 10SM CLR 10/M02 A2993 RMK AO2 PK
WND 26030/0057 SLP107 T01001022





000
SAUS44 KMAF 230154
MTR6R6
METAR K6R6 230153Z AUTO 27006KT 16/04 A2981 RMK AO1 SLP073 T01560044
$





000
SAUS44 KMAF 230109
MTRGDP
METAR KGDP 230051Z AUTO 25021G26KT 10SM CLR 11/M02 A2992 RMK AO2 PK
WND 24031/0015 SLP091 T01111022





000
SAUS44 KMAF 230054
MTR6R6
METAR K6R6 230053Z AUTO 27005KT 17/04 A2980 RMK AO1 SLP068 T01670039
$





000
SAUS44 KMAF 230011 COR
MTRGDP
METAR KGDP 222351Z AUTO 24024G33KT 10SM CLR 12/M02 A2992 RMK AO2 PK
WND 25039/2253 SLP087 T01221017 10178 20122 56004





000
SAUS44 KMAF 230010 COR
MTRGDP
METAR KGDP 222351Z AUTO 24024G33KT 10SM CLR 12/M02 A2992 RMK AO2 PK
WND 25039/2253 SLP087 T01221017 10178 20122 56004





000
SAUS44 KMAF 230009
MTRGDP
METAR KGDP 222351Z AUTO 24024G33KT 10SM CLR 12/M02 A2992 RMK AO2 PK
WND 25039/2253 SLP087 T01221017 10178 20122 56004





000
SAUS44 KMAF 222354
MTR6R6
METAR K6R6 222353Z AUTO 29007KT 20/03 A2979 RMK AO1 SLP063 T02000033
10250 20194 53008 $





000
SAUS44 KMAF 222309
MTRGDP
METAR KGDP 222251Z AUTO 24025G37KT 10SM FEW065 14/M02 A2992 RMK AO2
PK WND 25037/2249 SLP083 T01441017





000
SAUS44 KMAF 222255
MTR6R6
METAR K6R6 222253Z AUTO 28007KT 23/03 A2978 RMK AO1 PK WND
22027/2213 SLP058 T02280028 $





000
SAUS44 KMAF 222216 COR
MTRGDP
METAR KGDP 222151Z AUTO 25034G38KT 10SM CLR 16/M02 A2990 RMK AO2 PK
WND 25038/2151 SLP071 T01611022





000
SAUS44 KMAF 222210 COR
MTRGDP
METAR KGDP 222151Z AUTO 25034G38KT 10SM CLR 16/M02 A2990 RMK AO2 PK
WND 25038/2151 SLP071 T01611022





000
SAUS44 KMAF 222209
MTRGDP
METAR KGDP 222151Z AUTO 25034G38KT 10SM CLR 16/M02 A2990 RMK AO2 PK
WND 25038/2151 SLP071 T01611022





000
SAUS44 KMAF 222154
MTR6R6
METAR K6R6 222153Z AUTO 23021G25KT 24/03 A2977 RMK AO1 PK WND
23032/2056 SLP052 T02440033 $





000
SAUS44 KMAF 222154
MTR6R6
METAR K6R6 222153Z AUTO 23021G25KT 24/03 A2977 RMK AO1 PK WND
23032/2056 SLP052 T02440033 $





000
SAUS44 KMAF 222110 COR
MTRGDP
METAR KGDP 222051Z AUTO 25028G35KT 10SM SCT065 18/M01 A2993 RMK AO2
PK WND 24036/2031 SLP077 T01781011 56028





000
SAUS44 KMAF 222109
MTRGDP
METAR KGDP 222051Z AUTO 25028G35KT 10SM SCT065 18/M01 A2993 RMK AO2
PK WND 24036/2031 SLP077 T01781011 56028





000
SAUS44 KMAF 222054
MTR6R6
METAR K6R6 222053Z AUTO 24021G25KT 24/09 A2977 RMK AO1 PK WND
24028/2036 SLP052 T02440089 56036 $





000
SAUS44 KMAF 222009
MTRGDP
METAR KGDP 221951Z AUTO 24022G33KT 10SM CLR 17/M01 A2995 RMK AO2 PK
WND 26033/1944 SLP083 T01721006





000
SAUS44 KMAF 221954
MTR6R6
METAR K6R6 221953Z AUTO 22009KT 22/13 A2980 RMK AO1 SLP065 T02220133
$





000
SAUS44 KMAF 221909
MTRGDP
METAR KGDP 221851Z AUTO 26020G24KT 10SM CLR 17/01 A3000 RMK AO2 PK
WND 25027/1810 SLP104 T01720006





000
SAUS44 KMAF 221854
MTR6R6
METAR K6R6 221853Z AUTO VRB06KT 21/13 A2984 RMK AO1 SLP080 T02110133
$





000
SAUS44 KMAF 221809
MTRGDP
METAR KGDP 221751Z AUTO 24017G23KT 10SM FEW090 17/01 A3003 RMK AO2
SLP119 60000 T01670006 10172 20067 58012





000
SAUS44 KMAF 221754
MTR6R6
METAR K6R6 221753Z AUTO 27004KT 19/15 A2988 RMK AO1 SLP095 T01940150
10194 20156 58012 $





000
SAUS44 KMAF 221709
MTRGDP
METAR KGDP 221651Z AUTO 24016G23KT 10SM BKN100 17/00 A3005 RMK AO2
SLP125 T01670000





000
SAUS44 KMAF 221609
MTRGDP
METAR KGDP 221551Z AUTO VRB04KT 10SM CLR 11/00 A3006 RMK AO2 SLP140
T01060000





000
SAUS44 KMAF 221554
MTR6R6
METAR K6R6 221553Z AUTO 00000KT 16/15 A2992 RMK AO1 SLP110 T01610150
$





000
SAUS44 KMAF 221554
MTR6R6
METAR K6R6 221553Z AUTO 00000KT 16/15 A2992 RMK AO1 SLP110 T01610150
$





000
SAUS44 KMAF 221509
MTRGDP
METAR KGDP 221451Z AUTO 25007KT 8SM FEW002 OVC095 09/03 A3007 RMK
AO2 RAE06 SLP145 P0000 60000 T00940028 53012





000
SAUS44 KMAF 221502
MTRGDP
SPECI KGDP 221444Z AUTO 16005KT 5SM HZ SCT002 OVC090 09/06 A3007 RMK
AO2 RAE06 P0000 T00890056





000
SAUS44 KMAF 221454
MTR6R6
METAR K6R6 221453Z AUTO 00000KT 16/16 A2992 RMK AO1 SLP110 T01560156
53004 $





000
SAUS44 KMAF 221449
MTRGDP
SPECI KGDP 221431Z AUTO 09008KT 3SM BR BKN002 BKN095 08/07 A3006 RMK
AO2 RAE06 P0000 T00780067





000
SAUS44 KMAF 221438
MTRGDP
SPECI KGDP 221420Z AUTO 07009KT 1SM BR VV002 07/07 A3006 RMK AO2
RAE06 P0000 T00670067





000
SAUS44 KMAF 221434
MTRGDP
SPECI KGDP 221416Z AUTO 07012KT 3/4SM BR VV001 07/06 A3006 RMK AO2
RAE06 P0000 T00670061





000
SAUS44 KMAF 221409
MTRGDP
METAR KGDP 221351Z AUTO 08013KT M1/4SM -RA FG BKN001 OVC080 07/06
A3004 RMK AO2 RAB45 SLP139 P0000 T00670061





000
SAUS44 KMAF 221407
MTRGDP
SPECI KGDP 221349Z AUTO 07012KT M1/4SM -RA FG BKN001 BKN070 OVC085
07/06 A3004 RMK AO2 RAB45 P0000





000
SAUS44 KMAF 221403
MTRGDP
SPECI KGDP 221345Z AUTO 08014KT M1/4SM -RA FG BKN008 BKN070 OVC085
07/06 A3003 RMK AO2 RAB45 P0000





000
SAUS44 KMAF 221358
MTRGDP
SPECI KGDP 221340Z AUTO 08013KT 1/4SM FG BKN016 BKN070 OVC110 07/06
A3002 RMK AO2 T00670061





000
SAUS44 KMAF 221354
MTR6R6
METAR K6R6 221353Z AUTO 19004KT 16/16 A2991 RMK AO1 SLP106 T01610156
$





000
SAUS44 KMAF 221353
MTRGDP
SPECI KGDP 221335Z AUTO 04010KT 3/4SM BR FEW031 BKN070 OVC110 07/06
A3002 RMK AO2 T00670056





000
SAUS44 KMAF 221309
MTRGDP
METAR KGDP 221251Z AUTO 01008KT 10SM FEW070 SCT080 BKN100 11/M01
A3002 RMK AO2 SLP127 T01111011





000
SAUS44 KMAF 221254
MTR6R6
METAR K6R6 221253Z AUTO 00000KT 16/16 A2989 RMK AO1 SLP098 T01610156
$





000
SAUS44 KMAF 221210 COR
MTRGDP
METAR KGDP 221151Z AUTO 03011KT 10SM BKN100 11/M01 A3003 RMK AO2
RAB1058E08 SLP126 P0000 60000 T01061006 10144 20100 58001





000
SAUS44 KMAF 221209
MTRGDP
METAR KGDP 221151Z AUTO 03011KT 10SM BKN100 11/M01 A3003 RMK AO2
RAB1058E08 SLP126 P0000 60000 T01061006 10144 20100 58001





000
SAUS44 KMAF 221154
MTR6R6
METAR K6R6 221153Z AUTO 00000KT 16/16 A2990 RMK AO1 SLP103 T01610156
10161 20133 54000 $





000
SAUS44 KMAF 221109
MTRGDP
METAR KGDP 221051Z AUTO 00000KT 10SM BKN055 OVC070 11/M01 A3005 RMK
AO2 RAB38E48 SLP129 P0000 T01111011





000
SAUS44 KMAF 221054
MTR6R6
METAR K6R6 221053Z AUTO 00000KT 16/16 A2990 RMK AO1 SLP103 T01610156
$





000
SAUS44 KMAF 221009
MTRGDP
METAR KGDP 220951Z AUTO 31007KT 10SM OVC090 13/M03 A3003 RMK AO2
SLP113 T01281028





000
SAUS44 KMAF 220954
MTR6R6
METAR K6R6 220953Z AUTO 00000KT 16/15 A2990 RMK AO1 SLP103 T01560150
$





000
SAUS44 KMAF 220954
MTR6R6
METAR K6R6 220953Z AUTO 00000KT 16/15 A2990 RMK AO1 SLP103 T01560150
$





000
SAUS44 KMAF 220910 COR
MTRGDP
METAR KGDP 220851Z AUTO 32006KT 10SM BKN075 OVC095 13/M02 A3003 RMK
AO2 RAB15E32 SLP110 P0000 60000 T01331022 58002





000
SAUS44 KMAF 220909
MTRGDP
METAR KGDP 220851Z AUTO 32006KT 10SM BKN075 OVC095 13/M02 A3003 RMK
AO2 RAB15E32 SLP110 P0000 60000 T01331022 58002





000
SAUS44 KMAF 220854
MTR6R6
METAR K6R6 220853Z AUTO 08004KT 15/14 A2990 RMK AO1 SLP105 T01500144
$





000
SAUS44 KMAF 220809
MTRGDP
METAR KGDP 220751Z AUTO 32005KT 10SM FEW070 OVC090 13/M03 A3004 RMK
AO2 SLP115 T01331033





000
SAUS44 KMAF 220754
MTR6R6
METAR K6R6 220753Z AUTO 35004KT 14/14 A2992 RMK AO1 SLP113 T01440139
$





000
SAUS44 KMAF 220709
MTRGDP
METAR KGDP 220651Z AUTO 02006KT 10SM OVC110 13/M03 A3003 RMK AO2
SLP113 T01281028 402000078





000
SAUS44 KMAF 220655
MTR6R6
METAR K6R6 220653Z AUTO 02005KT 13/13 A2993 RMK AO1 SLP114 T01330128
$





000
SAUS44 KMAF 220609
MTRGDP
METAR KGDP 220551Z AUTO 04011KT 10SM BKN110 10/01 A3004 RMK AO2
SLP122 T01000006 10122 20094 52002





000
SAUS44 KMAF 220554
MTR6R6
METAR K6R6 220553Z AUTO 35004KT 13/13 A2994 RMK AO1 SLP119 T01330128
10178 20133 401890100 58006 $





000
SAUS44 KMAF 220509
MTRGDP
METAR KGDP 220451Z AUTO 05017KT 10SM CLR 10/00 A3004 RMK AO2 SLP125
T01000000





000
SAUS44 KMAF 220454
MTR6R6
METAR K6R6 220453Z AUTO 04008KT 14/13 A2994 RMK AO1 SLP122 T01390133
$





000
SAUS44 KMAF 220409
MTRGDP
METAR KGDP 220351Z AUTO 05020KT 10SM CLR 11/M01 A3003 RMK AO2 SLP126
T01111006





000
SAUS44 KMAF 220409
MTRGDP
METAR KGDP 220351Z AUTO 05020KT 10SM CLR 11/M01 A3003 RMK AO2 SLP126
T01111006





000
SAUS44 KMAF 220354
MTR6R6
METAR K6R6 220353Z AUTO 05008KT 14/14 A2995 RMK AO1 SLP125 T01440139
$





000
SAUS44 KMAF 220309
MTRGDP
METAR KGDP 220251Z AUTO 04021KT 10SM CLR 12/M03 A3003 RMK AO2 SLP130
T01171028 53002





000
SAUS44 KMAF 220254
MTR6R6
METAR K6R6 220253Z AUTO 06006KT 15/14 A2996 RMK AO1 SLP127 T01500139
$





000
SAUS44 KMAF 220209
MTRGDP
METAR KGDP 220151Z AUTO 04023KT 10SM CLR 12/M03 A3002 RMK AO2 SLP127
T01171028





000
SAUS44 KMAF 220154
MTR6R6
METAR K6R6 220153Z AUTO 07008KT 16/14 A2996 RMK AO1 SLP126 T01610139
$





000
SAUS44 KMAF 220109
MTRGDP
METAR KGDP 220051Z AUTO 05023KT 10SM CLR 11/M03 A3002 RMK AO2 SLP131
T01111028





    US Dept of Commerce
    National Oceanic and Atmospheric Administration
    National Weather Service
    1325 East West Highway
    Silver Spring, MD 20910
    Page Author: NWS Internet Services Team
Disclaimer
Information Quality
Credits
Glossary
Privacy Policy
Freedom of Information Act (FOIA)
About Us
Career Opportunities